Marianna, Pennsylvania
Current Conditions -  °F | °C
As of 4:55 PM on Saturday 25 Oct 2014 (Local Time) from KAFJ Reporting Station
Few Clouds Few Clouds  
Wind Chill: 64°   Ceiling: Unl
Heat Index: 64°   Visibility: 10mi
Dew Point: 52°   Wind: 12mph
Humidity: 64%   Direction: 240°WSW
Pressure: 29.81"   Gusts: 21mph
Location:  40.02°N, 80.1°W
Report Text: KAFJ 252055Z AUTO 24010G18KT 10SM FEW037 18/11 A2981 RMK AO1 57020
Loading
Personal Weather Stations






























Interactive Weather Map
Tropical Storm Tracking
New forecast layout! Learn more

10-Day Weather Forecast

Advertisements
Track Severe Weather on mobile